createdAt,value
2023-08-23T00:02:21.890Z,4.67
2023-08-23T00:04:50.572Z,4.60
2023-08-23T00:07:17.464Z,5.00
2023-08-23T00:09:44.160Z,5.40
2023-08-23T00:12:10.711Z,4.70
2023-08-23T00:14:37.237Z,4.17
2023-08-23T00:17:03.960Z,5.63
2023-08-23T00:19:30.605Z,5.03
2023-08-23T00:21:57.073Z,5.00
2023-08-23T00:24:23.626Z,4.10
2023-08-23T00:26:50.189Z,4.80
2023-08-23T00:29:16.787Z,4.67
2023-08-23T00:31:43.325Z,4.30
2023-08-23T00:34:09.848Z,4.43
2023-08-23T00:36:37.033Z,4.67
2023-08-23T00:39:03.564Z,4.53
2023-08-23T00:41:30.049Z,5.10
2023-08-23T00:43:56.686Z,4.87
2023-08-23T00:46:23.261Z,4.87
2023-08-23T00:48:51.682Z,5.00
2023-08-23T00:51:19.619Z,5.07
2023-08-23T00:53:47.450Z,4.37
2023-08-23T00:56:14.093Z,4.53
2023-08-23T00:58:40.770Z,4.60
2023-08-23T01:01:07.951Z,4.20
2023-08-23T01:03:34.683Z,5.00
2023-08-23T01:06:09.224Z,4.63
2023-08-23T01:08:39.516Z,5.03
2023-08-23T01:11:14.469Z,4.30
2023-08-23T01:14:04.952Z,4.93
2023-08-23T01:16:33.897Z,4.57
2023-08-23T01:19:04.512Z,4.23
2023-08-23T01:21:37.257Z,4.70
2023-08-23T01:24:09.630Z,4.37
2023-08-23T01:26:39.654Z,5.00
2023-08-23T01:29:06.299Z,4.70
2023-08-23T01:31:39.244Z,4.37
2023-08-23T01:34:16.569Z,3.90
2023-08-23T01:36:43.825Z,4.63
2023-08-23T01:39:12.050Z,4.10
2023-08-23T01:41:39.566Z,4.40
2023-08-23T01:44:06.293Z,4.07
2023-08-23T01:46:35.203Z,4.30
2023-08-23T01:49:02.680Z,4.30
2023-08-23T01:51:29.244Z,4.90
2023-08-23T01:53:55.818Z,5.20
2023-08-23T01:56:22.363Z,5.33
2023-08-23T01:58:48.909Z,4.10
2023-08-23T02:01:15.477Z,4.90
2023-08-23T02:03:42.124Z,4.60
2023-08-23T02:06:08.674Z,4.40
2023-08-23T02:08:36.607Z,4.80
2023-08-23T02:11:03.221Z,4.23
2023-08-23T02:13:29.746Z,5.23
2023-08-23T02:15:56.520Z,3.97
2023-08-23T02:18:23.272Z,4.90
2023-08-23T02:20:59.637Z,4.60
2023-08-23T02:23:26.664Z,4.27
2023-08-23T02:25:53.552Z,4.10
2023-08-23T02:28:20.243Z,4.20
2023-08-23T02:30:46.966Z,4.73
2023-08-23T02:33:13.568Z,4.30
2023-08-23T02:35:48.164Z,4.47
2023-08-23T02:38:15.626Z,4.20
2023-08-23T02:40:43.714Z,4.80
2023-08-23T02:43:10.641Z,4.87
2023-08-23T02:45:41.417Z,4.37
2023-08-23T02:48:11.787Z,4.23
2023-08-23T02:50:39.151Z,3.90
2023-08-23T02:53:05.916Z,4.57
2023-08-23T02:55:38.886Z,3.97
2023-08-23T02:58:06.267Z,4.60
2023-08-23T03:00:32.813Z,4.10
2023-08-23T03:02:59.375Z,4.07
2023-08-23T03:05:26.018Z,4.20
2023-08-23T03:07:52.587Z,4.50
2023-08-23T03:10:19.118Z,4.10
2023-08-23T03:12:45.661Z,4.10
2023-08-23T03:15:12.267Z,4.33
2023-08-23T03:17:38.882Z,4.13
2023-08-23T03:20:06.151Z,4.00
2023-08-23T03:22:32.724Z,4.33
2023-08-23T03:24:59.266Z,4.23
2023-08-23T03:27:26.922Z,4.40
2023-08-23T03:29:53.454Z,4.50
2023-08-23T03:32:22.738Z,4.17
2023-08-23T03:34:49.452Z,4.87
2023-08-23T03:37:16.055Z,4.50
2023-08-23T03:39:42.608Z,4.67
2023-08-23T03:42:09.159Z,4.50
2023-08-23T03:44:35.695Z,5.03
2023-08-23T03:47:02.303Z,4.43
2023-08-23T03:49:29.706Z,4.70
2023-08-23T03:51:56.403Z,4.30
2023-08-23T03:54:23.127Z,4.80
2023-08-23T03:56:49.706Z,4.80
2023-08-23T03:59:16.212Z,4.57
2023-08-23T04:01:44.639Z,4.50
2023-08-23T04:04:11.641Z,4.57
2023-08-23T04:06:38.410Z,4.27
2023-08-23T04:09:05.021Z,5.00
2023-08-23T04:11:31.674Z,4.43
2023-08-23T04:13:58.199Z,4.60
2023-08-23T04:16:24.870Z,4.73
2023-08-23T04:18:51.492Z,4.70
2023-08-23T04:21:18.132Z,5.57
2023-08-23T04:23:44.668Z,4.80
2023-08-23T04:26:11.180Z,4.70
2023-08-23T04:28:38.434Z,5.00
2023-08-23T04:31:05.041Z,4.77
2023-08-23T04:33:31.878Z,4.97
2023-08-23T04:35:58.583Z,5.20
2023-08-23T04:38:25.162Z,4.67
2023-08-23T04:41:01.433Z,4.23
2023-08-23T04:43:28.024Z,4.10
2023-08-23T04:45:59.318Z,4.90
2023-08-23T04:48:28.100Z,4.67
2023-08-23T04:50:56.088Z,4.90
2023-08-23T04:53:22.731Z,5.30
2023-08-23T04:55:49.494Z,4.60
2023-08-23T04:58:16.986Z,4.90
2023-08-23T05:00:47.224Z,5.10
2023-08-23T05:03:13.955Z,4.57
2023-08-23T05:05:42.081Z,4.83
2023-08-23T05:08:08.677Z,4.80
2023-08-23T05:10:36.182Z,5.10
2023-08-23T05:13:03.048Z,4.60
2023-08-23T05:15:29.593Z,4.37
2023-08-23T05:17:56.352Z,5.40
2023-08-23T05:20:22.958Z,5.17
2023-08-23T05:22:49.499Z,4.80
2023-08-23T05:25:16.053Z,4.40
2023-08-23T05:27:42.593Z,4.50
2023-08-23T05:30:09.717Z,4.80
2023-08-23T05:32:36.353Z,4.50
2023-08-23T05:35:04.322Z,4.10
2023-08-23T05:37:30.853Z,4.77
2023-08-23T05:39:57.442Z,4.63
2023-08-23T05:42:24.023Z,5.00
2023-08-23T05:44:50.566Z,4.30
2023-08-23T05:47:17.068Z,4.47
2023-08-23T05:49:43.990Z,5.20
2023-08-23T05:52:10.634Z,5.20
2023-08-23T05:54:37.240Z,5.37
2023-08-23T05:57:04.813Z,5.03
2023-08-23T05:59:31.403Z,5.47
2023-08-23T06:01:58.055Z,5.00
2023-08-23T06:04:24.628Z,5.43
2023-08-23T06:06:51.170Z,4.33
2023-08-23T06:09:20.658Z,4.80
2023-08-23T06:11:47.220Z,4.83
2023-08-23T06:14:21.384Z,5.40
2023-08-23T06:16:48.116Z,5.20
2023-08-23T06:19:14.839Z,5.47
2023-08-23T06:21:42.847Z,5.17
2023-08-23T06:24:10.137Z,5.80
2023-08-23T06:26:37.053Z,5.50
2023-08-23T06:29:04.646Z,6.63
2023-08-23T06:31:31.620Z,6.60
2023-08-23T06:33:58.202Z,7.27
2023-08-23T06:36:24.767Z,6.67
2023-08-23T06:38:51.350Z,6.77
2023-08-23T06:41:17.988Z,6.27
2023-08-23T06:43:48.160Z,6.37
2023-08-23T06:46:14.783Z,6.50
2023-08-23T06:48:42.269Z,7.23
2023-08-23T06:51:08.785Z,6.33
2023-08-23T06:53:36.587Z,7.43
2023-08-23T06:56:04.681Z,7.90
2023-08-23T06:58:31.384Z,7.27
2023-08-23T07:00:58.184Z,7.60
2023-08-23T07:03:24.988Z,7.30
2023-08-23T07:05:51.634Z,7.73
2023-08-23T07:08:18.882Z,8.00
2023-08-23T07:10:45.831Z,7.97
2023-08-23T07:13:12.540Z,8.97
2023-08-23T07:15:40.100Z,7.63
2023-08-23T07:18:06.899Z,8.10
2023-08-23T07:20:33.428Z,8.00
2023-08-23T07:23:00.087Z,9.60
2023-08-23T07:25:26.675Z,8.80
2023-08-23T07:27:53.518Z,8.10
2023-08-23T07:30:20.088Z,7.43
2023-08-23T07:32:46.789Z,7.83
2023-08-23T07:35:13.385Z,7.93
2023-08-23T07:37:39.976Z,8.37
2023-08-23T07:40:08.008Z,7.23
2023-08-23T07:42:34.622Z,7.13
2023-08-23T07:45:01.175Z,8.13
2023-08-23T07:47:27.710Z,7.00
2023-08-23T07:49:54.295Z,7.97
2023-08-23T07:52:20.839Z,7.53
2023-08-23T07:54:47.333Z,7.93
2023-08-23T07:57:13.834Z,7.50
2023-08-23T07:59:40.461Z,7.73
2023-08-23T08:02:07.390Z,6.63
2023-08-23T08:04:34.862Z,7.80
2023-08-23T08:07:01.513Z,7.00
2023-08-23T08:09:28.088Z,8.10
2023-08-23T08:11:54.660Z,7.67
2023-08-23T08:14:21.194Z,7.00
2023-08-23T08:16:47.830Z,7.43
2023-08-23T08:19:14.503Z,7.40
2023-08-23T08:21:41.630Z,7.07
2023-08-23T08:24:08.257Z,7.40
2023-08-23T08:26:34.845Z,6.50
2023-08-23T08:29:01.342Z,7.60
2023-08-23T08:31:27.916Z,5.83
2023-08-23T08:33:54.553Z,6.17
2023-08-23T08:36:21.113Z,6.57
2023-08-23T08:38:47.621Z,5.60
2023-08-23T08:41:14.373Z,6.73
2023-08-23T08:43:41.408Z,5.37
2023-08-23T08:46:08.232Z,6.70
2023-08-23T08:48:34.832Z,4.53
2023-08-23T08:51:04.134Z,5.97
2023-08-23T08:53:33.403Z,5.47
2023-08-23T08:56:01.389Z,5.60
2023-08-23T08:58:29.626Z,5.57
2023-08-23T09:00:59.821Z,4.97
2023-08-23T09:03:27.581Z,4.60
2023-08-23T09:05:54.876Z,5.20
2023-08-23T09:08:22.010Z,4.30
2023-08-23T09:10:48.525Z,4.50
2023-08-23T09:13:15.075Z,3.97
2023-08-23T09:15:41.799Z,4.17
2023-08-23T09:18:08.487Z,4.73
2023-08-23T09:20:36.754Z,5.40
2023-08-23T09:23:03.413Z,3.93
2023-08-23T09:25:30.012Z,3.80
2023-08-23T09:27:57.329Z,3.70
2023-08-23T09:30:24.268Z,3.30
2023-08-23T09:32:50.933Z,2.80
2023-08-23T09:35:18.676Z,2.40
2023-08-23T09:37:49.838Z,2.73
2023-08-23T09:40:16.635Z,2.67
2023-08-23T09:42:44.689Z,2.33
2023-08-23T09:45:16.177Z,2.40
2023-08-23T09:47:55.739Z,1.80
2023-08-23T09:50:24.674Z,2.70
2023-08-23T09:53:20.985Z,2.60
2023-08-23T09:55:48.163Z,2.50
2023-08-23T09:58:14.797Z,2.50
2023-08-23T10:00:42.166Z,4.67
2023-08-23T10:03:10.214Z,3.57
2023-08-23T10:05:37.259Z,7.03
2023-08-23T10:08:03.893Z,12.33
2023-08-23T10:10:31.614Z,4.53
2023-08-23T10:13:05.460Z,3.50
2023-08-23T10:15:38.903Z,3.40
2023-08-23T10:18:10.241Z,3.23
2023-08-23T10:20:38.351Z,3.90
2023-08-23T10:23:19.689Z,3.80
2023-08-23T10:25:48.248Z,2.90
2023-08-23T10:28:17.352Z,3.20
2023-08-23T10:30:46.117Z,3.13
2023-08-23T10:33:17.588Z,2.57
2023-08-23T10:35:45.989Z,2.63
2023-08-23T10:38:13.348Z,2.67
2023-08-23T10:40:41.344Z,5.70
2023-08-23T10:43:13.112Z,3.60
2023-08-23T10:46:09.581Z,2.93
2023-08-23T10:48:36.808Z,3.33
2023-08-23T10:51:03.796Z,2.50
2023-08-23T10:53:31.330Z,2.53
2023-08-23T10:56:01.688Z,2.63
2023-08-23T10:58:28.200Z,2.07
2023-08-23T11:00:55.651Z,1.90
2023-08-23T11:03:23.029Z,2.47
2023-08-23T11:05:50.057Z,2.30
2023-08-23T11:08:17.314Z,1.87
2023-08-23T11:10:44.108Z,1.70
2023-08-23T11:13:10.814Z,1.67
2023-08-23T11:15:37.840Z,1.80
2023-08-23T11:18:04.896Z,1.87
2023-08-23T11:20:31.633Z,2.00
2023-08-23T11:22:58.273Z,2.50
2023-08-23T11:25:24.797Z,2.10
2023-08-23T11:27:52.099Z,2.20
2023-08-23T11:30:23.544Z,2.13
2023-08-23T11:32:50.259Z,1.80
2023-08-23T11:35:23.155Z,2.10
2023-08-23T11:37:50.819Z,2.13
2023-08-23T11:40:18.083Z,1.87
2023-08-23T11:42:46.527Z,1.50
2023-08-23T11:45:13.193Z,2.40
2023-08-23T11:47:40.327Z,1.87
2023-08-23T11:50:08.637Z,1.93
2023-08-23T11:52:35.305Z,1.37
2023-08-23T11:55:05.772Z,1.50
2023-08-23T11:57:35.420Z,2.20
2023-08-23T12:00:02.469Z,1.97
2023-08-23T12:02:29.090Z,1.70
2023-08-23T12:04:56.021Z,2.10
2023-08-23T12:07:22.575Z,2.13
2023-08-23T12:09:49.066Z,2.07
2023-08-23T12:12:15.714Z,1.67
2023-08-23T12:14:42.539Z,1.77
2023-08-23T12:17:09.219Z,2.07
2023-08-23T12:19:37.863Z,1.73
2023-08-23T12:22:06.632Z,2.03
2023-08-23T12:24:33.253Z,1.70
2023-08-23T12:27:00.988Z,3.83
2023-08-23T12:29:27.853Z,7.00
2023-08-23T12:31:57.197Z,2.50
2023-08-23T12:34:25.382Z,2.13
2023-08-23T12:36:51.960Z,1.70
2023-08-23T12:39:18.487Z,1.63
2023-08-23T12:41:45.124Z,2.00
2023-08-23T12:44:11.672Z,2.03
2023-08-23T12:46:38.188Z,1.60
2023-08-23T12:49:08.439Z,2.00
2023-08-23T12:51:35.691Z,1.67
2023-08-23T12:54:02.322Z,1.87
2023-08-23T12:56:28.865Z,2.37
2023-08-23T12:58:55.525Z,2.00
2023-08-23T13:01:22.262Z,2.10
2023-08-23T13:03:48.805Z,2.13
2023-08-23T13:06:15.341Z,2.40
2023-08-23T13:08:41.884Z,2.10
2023-08-23T13:11:08.784Z,2.33
2023-08-23T13:13:36.866Z,2.10
2023-08-23T13:16:03.463Z,2.20
2023-08-23T13:18:30.047Z,2.53
2023-08-23T13:20:56.568Z,2.10
2023-08-23T13:23:23.937Z,2.00
2023-08-23T13:25:50.919Z,2.30
2023-08-23T13:28:18.088Z,1.93
2023-08-23T13:30:44.873Z,2.20
2023-08-23T13:33:11.459Z,1.90
2023-08-23T13:35:38.035Z,2.40
2023-08-23T13:38:04.746Z,3.27
2023-08-23T13:40:31.220Z,3.53
2023-08-23T13:43:13.862Z,2.23
2023-08-23T13:45:46.125Z,2.40
2023-08-23T13:48:13.286Z,2.47
2023-08-23T13:50:39.915Z,2.10
2023-08-23T13:53:06.480Z,3.20
2023-08-23T13:55:33.073Z,2.60
2023-08-23T13:57:59.691Z,2.30
2023-08-23T14:00:26.356Z,2.37
2023-08-23T14:02:52.905Z,2.57
2023-08-23T14:05:19.821Z,2.23
2023-08-23T14:07:46.655Z,2.63
2023-08-23T14:10:13.662Z,2.20
2023-08-23T14:12:40.177Z,2.33
2023-08-23T14:15:07.210Z,2.37
2023-08-23T14:17:33.776Z,2.30
2023-08-23T14:20:01.327Z,2.47
2023-08-23T14:22:27.917Z,1.90
2023-08-23T14:24:54.491Z,2.07
2023-08-23T14:27:21.028Z,2.40
2023-08-23T14:29:47.560Z,2.60
2023-08-23T14:32:14.106Z,2.10
2023-08-23T14:34:40.718Z,2.03
2023-08-23T14:37:07.276Z,1.97
2023-08-23T14:39:33.820Z,2.23
2023-08-23T14:42:00.381Z,2.03
2023-08-23T14:44:30.179Z,1.93
2023-08-23T14:46:58.286Z,2.13
2023-08-23T14:49:24.756Z,1.97
2023-08-23T14:51:51.260Z,1.87
2023-08-23T14:54:17.840Z,1.80
2023-08-23T14:56:44.355Z,1.67
2023-08-23T14:59:10.863Z,1.80
2023-08-23T15:01:37.551Z,1.83
2023-08-23T15:04:04.281Z,2.07
2023-08-23T15:06:30.819Z,1.80
2023-08-23T15:08:57.287Z,1.93
2023-08-23T15:11:23.812Z,1.70
2023-08-23T15:13:51.524Z,1.70
2023-08-23T15:16:18.178Z,2.10
2023-08-23T15:18:44.757Z,1.80
2023-08-23T15:21:11.367Z,1.60
2023-08-23T15:23:37.961Z,1.70
2023-08-23T15:26:04.505Z,2.03
2023-08-23T15:28:34.002Z,1.47
2023-08-23T15:31:08.288Z,1.57
2023-08-23T15:33:34.779Z,1.67
2023-08-23T15:36:04.133Z,2.43
2023-08-23T15:38:31.075Z,1.70
2023-08-23T15:40:57.571Z,1.90
2023-08-23T15:43:24.145Z,1.80
2023-08-23T15:45:53.675Z,1.80
2023-08-23T15:48:21.305Z,1.90
2023-08-23T15:50:48.945Z,2.10
2023-08-23T15:53:17.194Z,1.83
2023-08-23T15:55:44.946Z,1.90
2023-08-23T15:58:11.456Z,2.07
2023-08-23T16:00:38.135Z,2.10
2023-08-23T16:03:04.881Z,2.20
2023-08-23T16:05:31.441Z,1.70
2023-08-23T16:07:57.954Z,1.63
2023-08-23T16:10:24.501Z,2.20
2023-08-23T16:12:51.012Z,1.60
2023-08-23T16:15:17.694Z,1.93
2023-08-23T16:17:44.223Z,1.83
2023-08-23T16:20:11.206Z,2.10
2023-08-23T16:22:37.830Z,2.00
2023-08-23T16:25:05.287Z,2.20
2023-08-23T16:27:31.788Z,3.17
2023-08-23T16:30:00.017Z,3.03
2023-08-23T16:32:26.531Z,2.40
2023-08-23T16:34:53.090Z,1.80
2023-08-23T16:37:19.577Z,1.90
2023-08-23T16:39:46.151Z,2.30
2023-08-23T16:42:12.702Z,1.80
2023-08-23T16:44:39.214Z,2.90
2023-08-23T16:47:05.886Z,1.90
2023-08-23T16:49:32.414Z,1.60
2023-08-23T16:51:58.868Z,2.00
2023-08-23T16:54:25.428Z,2.47
2023-08-23T16:56:51.913Z,2.03
2023-08-23T16:59:18.460Z,2.07
2023-08-23T17:01:45.045Z,1.67
2023-08-23T17:04:11.586Z,1.90
2023-08-23T17:06:38.246Z,1.97
2023-08-23T17:09:04.997Z,2.00
2023-08-23T17:11:31.703Z,2.00
2023-08-23T17:13:58.233Z,1.53
2023-08-23T17:16:24.848Z,2.53
2023-08-23T17:18:51.303Z,2.23
2023-08-23T17:21:18.216Z,2.10
2023-08-23T17:23:44.718Z,1.80
2023-08-23T17:26:11.354Z,2.03
2023-08-23T17:28:39.449Z,2.10
2023-08-23T17:31:09.941Z,2.40
2023-08-23T17:33:36.874Z,2.20
2023-08-23T17:36:04.177Z,2.00
2023-08-23T17:38:30.672Z,2.10
2023-08-23T17:40:57.192Z,2.00
2023-08-23T17:43:23.985Z,1.90
2023-08-23T17:45:50.472Z,2.10
2023-08-23T17:48:16.973Z,1.80
2023-08-23T17:50:43.694Z,1.90
2023-08-23T17:53:10.152Z,1.80
2023-08-23T17:55:36.666Z,2.00
2023-08-23T17:58:03.359Z,2.50
2023-08-23T18:00:29.875Z,2.20
2023-08-23T18:02:56.421Z,2.43
2023-08-23T18:05:23.120Z,1.77
2023-08-23T18:07:49.667Z,2.20
2023-08-23T18:10:16.243Z,2.07
2023-08-23T18:12:42.782Z,2.17
2023-08-23T18:15:09.736Z,2.40
2023-08-23T18:17:36.289Z,1.90
2023-08-23T18:20:02.904Z,2.17
2023-08-23T18:22:29.382Z,2.30
2023-08-23T18:24:55.852Z,2.30
2023-08-23T18:27:23.529Z,2.03
2023-08-23T18:29:50.377Z,2.10
2023-08-23T18:32:16.868Z,3.50
2023-08-23T18:34:43.360Z,5.10
2023-08-23T18:37:09.908Z,3.90
2023-08-23T18:39:36.810Z,3.03
2023-08-23T18:42:03.544Z,2.77
2023-08-23T18:44:32.069Z,2.60
2023-08-23T18:46:58.760Z,2.70
2023-08-23T18:49:25.262Z,3.77
2023-08-23T18:51:51.761Z,3.43
2023-08-23T18:54:18.356Z,3.30
2023-08-23T18:56:44.881Z,2.57
2023-08-23T18:59:12.174Z,3.13
2023-08-23T19:01:38.807Z,2.60
2023-08-23T19:04:05.459Z,2.33
2023-08-23T19:06:32.133Z,3.03
2023-08-23T19:08:58.635Z,4.50
2023-08-23T19:11:25.186Z,5.90
2023-08-23T19:13:51.707Z,4.10
2023-08-23T19:16:18.735Z,3.63
2023-08-23T19:18:45.947Z,5.07
2023-08-23T19:21:12.668Z,4.23
2023-08-23T19:23:39.433Z,3.30
2023-08-23T19:26:05.952Z,3.93
2023-08-23T19:28:32.506Z,4.10
2023-08-23T19:30:58.996Z,3.60
2023-08-23T19:33:25.509Z,2.90
2023-08-23T19:35:52.266Z,3.30
2023-08-23T19:38:20.615Z,3.37
2023-08-23T19:40:47.690Z,4.10
2023-08-23T19:43:14.855Z,4.30
2023-08-23T19:45:41.771Z,3.30
2023-08-23T19:48:25.317Z,3.17
2023-08-23T19:50:54.873Z,3.00
2023-08-23T19:53:21.387Z,2.93
2023-08-23T19:55:47.989Z,2.87
2023-08-23T19:58:20.031Z,3.80
2023-08-23T20:00:46.676Z,2.93
2023-08-23T20:03:13.524Z,2.90
2023-08-23T20:05:46.733Z,3.50
2023-08-23T20:08:13.396Z,3.80
2023-08-23T20:10:39.926Z,3.13
2023-08-23T20:13:06.454Z,3.30
2023-08-23T20:15:33.835Z,3.50
2023-08-23T20:18:00.443Z,3.37
2023-08-23T20:20:27.117Z,3.20
2023-08-23T20:22:53.723Z,3.40
2023-08-23T20:25:20.441Z,3.40
2023-08-23T20:27:47.060Z,3.93
2023-08-23T20:30:13.756Z,3.50
2023-08-23T20:32:40.307Z,4.00
2023-08-23T20:35:07.837Z,3.20
2023-08-23T20:37:34.364Z,4.00
2023-08-23T20:40:00.913Z,3.70
2023-08-23T20:42:27.435Z,3.57
2023-08-23T20:44:53.993Z,3.93
2023-08-23T20:47:20.526Z,3.97
2023-08-23T20:49:46.998Z,3.27
2023-08-23T20:52:13.581Z,3.80
2023-08-23T20:54:40.093Z,3.70
2023-08-23T20:57:06.615Z,3.90
2023-08-23T20:59:33.233Z,4.30
2023-08-23T21:01:59.730Z,3.77
2023-08-23T21:04:26.838Z,4.47
2023-08-23T21:06:53.488Z,3.90
2023-08-23T21:09:19.981Z,3.70
2023-08-23T21:11:46.526Z,3.90
2023-08-23T21:14:13.047Z,3.77
2023-08-23T21:16:39.609Z,4.53
2023-08-23T21:19:07.232Z,3.17
2023-08-23T21:21:33.969Z,3.47
2023-08-23T21:24:00.466Z,3.83
2023-08-23T21:26:27.100Z,3.97
2023-08-23T21:28:53.882Z,4.40
2023-08-23T21:31:20.450Z,4.00
2023-08-23T21:33:47.066Z,3.30
2023-08-23T21:36:13.706Z,3.50
2023-08-23T21:38:40.380Z,3.57
2023-08-23T21:41:07.005Z,3.43
2023-08-23T21:43:33.779Z,4.00
2023-08-23T21:46:01.682Z,3.70
2023-08-23T21:48:28.293Z,3.20
2023-08-23T21:50:54.936Z,4.30
2023-08-23T21:53:21.638Z,3.47
2023-08-23T21:55:56.634Z,3.77
2023-08-23T21:58:30.125Z,3.83
2023-08-23T22:00:59.779Z,4.20
2023-08-23T22:03:40.547Z,4.00
2023-08-23T22:06:09.681Z,4.00
2023-08-23T22:08:42.528Z,4.10
2023-08-23T22:11:12.095Z,4.70
2023-08-23T22:13:40.368Z,4.33
2023-08-23T22:16:07.449Z,4.30
2023-08-23T22:18:35.098Z,4.37
2023-08-23T22:21:03.447Z,4.00
2023-08-23T22:23:29.925Z,4.50
2023-08-23T22:25:58.508Z,4.40
2023-08-23T22:28:25.380Z,3.50
2023-08-23T22:30:52.241Z,4.30
2023-08-23T22:33:18.850Z,3.93
2023-08-23T22:35:46.674Z,3.50
2023-08-23T22:38:13.784Z,4.50
2023-08-23T22:40:46.425Z,4.57
2023-08-23T22:43:13.339Z,3.87
2023-08-23T22:45:40.009Z,4.10
2023-08-23T22:48:06.897Z,3.87
2023-08-23T22:50:33.492Z,4.20
2023-08-23T22:53:00.124Z,3.63
2023-08-23T22:55:26.718Z,4.00
2023-08-23T22:57:53.941Z,3.73
2023-08-23T23:00:20.582Z,4.27
2023-08-23T23:02:47.185Z,3.90
2023-08-23T23:05:13.762Z,4.20
2023-08-23T23:07:40.728Z,4.87
2023-08-23T23:10:08.142Z,3.93
2023-08-23T23:12:35.262Z,3.87
2023-08-23T23:15:04.311Z,4.23
2023-08-23T23:17:31.942Z,4.30
2023-08-23T23:19:58.603Z,4.93
2023-08-23T23:22:25.131Z,4.30
2023-08-23T23:24:51.680Z,3.67
2023-08-23T23:27:18.212Z,4.30
2023-08-23T23:29:44.694Z,4.07
2023-08-23T23:32:12.218Z,3.30
2023-08-23T23:34:38.860Z,4.37
2023-08-23T23:37:05.699Z,3.50
2023-08-23T23:39:32.329Z,4.07
2023-08-23T23:41:58.900Z,4.43
2023-08-23T23:44:25.443Z,3.47
2023-08-23T23:46:52.031Z,4.10
2023-08-23T23:49:18.797Z,4.23
2023-08-23T23:51:45.347Z,4.27
2023-08-23T23:54:11.897Z,4.00
2023-08-23T23:56:38.429Z,4.10
2023-08-23T23:59:04.984Z,4.00
